Time;durP1;ratioP1;P1;durP2;ratioP2;P2;SDS_P1;SDS_P2;PMS_P1;PMS_P2;Temp;Humidity;BMP_temperature;BMP_pressure;BME280_temperature;BME280_humidity;BME280_pressure;Samples;Min_cycle;Max_cycle;Signal;HPM_P1;HPM_P2
2023/11/21 00:00:49;;;;;;;8.00;3.50;;;10.60;80.70;;;;;;5050479;28;20094;-60
2023/11/21 00:03:15;;;;;;;5.80;3.50;;;10.60;80.80;;;;;;5048673;28;20404;-60
2023/11/21 00:05:41;;;;;;;6.53;2.95;;;10.60;80.80;;;;;;5062920;28;20146;-60
2023/11/21 00:08:07;;;;;;;9.70;3.42;;;10.60;80.90;;;;;;5047929;28;20033;-60
2023/11/21 00:10:34;;;;;;;8.52;2.78;;;10.60;80.90;;;;;;5056756;28;20053;-60
2023/11/21 00:13:02;;;;;;;4.43;2.75;;;10.60;80.80;;;;;;5047784;28;20069;-60
2023/11/21 00:15:28;;;;;;;7.68;4.28;;;10.60;80.80;;;;;;5054258;28;20028;-59
2023/11/21 00:17:54;;;;;;;4.28;2.67;;;10.60;80.80;;;;;;5059586;28;20502;-60
2023/11/21 00:20:20;;;;;;;7.53;3.38;;;10.60;80.80;;;;;;5057508;28;20158;-60
2023/11/21 00:22:46;;;;;;;3.63;3.10;;;10.60;80.80;;;;;;5052571;28;20124;-60
2023/11/21 00:25:14;;;;;;;4.82;3.20;;;10.60;80.80;;;;;;5051752;28;20064;-60
2023/11/21 00:27:41;;;;;;;5.82;2.75;;;10.50;80.80;;;;;;5053710;28;20120;-60
2023/11/21 00:30:08;;;;;;;5.00;3.30;;;10.50;80.90;;;;;;5052831;28;20035;-60
2023/11/21 00:32:36;;;;;;;7.30;3.80;;;10.50;80.90;;;;;;5059250;28;20060;-60
2023/11/21 00:35:01;;;;;;;6.80;2.92;;;10.50;80.90;;;;;;5056947;28;20033;-60
2023/11/21 00:37:27;;;;;;;5.50;3.80;;;10.50;80.90;;;;;;5052085;28;20166;-60
2023/11/21 00:39:53;;;;;;;6.07;3.40;;;10.50;80.80;;;;;;5049672;28;20021;-60
2023/11/21 00:42:19;;;;;;;5.65;3.30;;;10.50;80.90;;;;;;5046548;28;20506;-60
2023/11/21 00:44:45;;;;;;;6.38;3.80;;;10.50;80.90;;;;;;5051358;28;20032;-60
2023/11/21 00:47:11;;;;;;;7.40;3.08;;;10.50;81.00;;;;;;5046002;28;20040;-60
2023/11/21 00:49:36;;;;;;;6.18;3.97;;;10.50;81.10;;;;;;5057340;28;20459;-60
2023/11/21 00:52:02;;;;;;;4.65;2.80;;;10.50;81.20;;;;;;5047488;28;20033;-60
2023/11/21 00:54:28;;;;;;;4.80;2.72;;;10.50;81.20;;;;;;5045855;28;20033;-60
2023/11/21 00:56:54;;;;;;;8.48;3.47;;;10.50;81.20;;;;;;5052584;28;20166;-60
2023/11/21 00:59:19;;;;;;;7.43;3.40;;;10.50;81.20;;;;;;5055221;28;20021;-60
2023/11/21 01:01:45;;;;;;;5.15;2.97;;;10.60;81.30;;;;;;5052533;28;20036;-59
2023/11/21 01:04:11;;;;;;;5.57;2.83;;;10.60;81.30;;;;;;5056146;28;20087;-60
2023/11/21 01:06:37;;;;;;;6.45;4.10;;;10.60;81.40;;;;;;5047595;28;20060;-60
2023/11/21 01:09:07;;;;;;;6.65;3.40;;;10.60;81.50;;;;;;5049491;28;20036;-60
2023/11/21 01:11:37;;;;;;;5.53;3.15;;;10.60;81.50;;;;;;5046368;28;20071;-60
2023/11/21 01:14:04;;;;;;;5.18;3.58;;;10.70;81.60;;;;;;5055264;28;20052;-60
2023/11/21 01:16:32;;;;;;;3.95;2.50;;;10.70;81.60;;;;;;5053476;28;20061;-60
2023/11/21 01:18:59;;;;;;;5.43;2.60;;;10.70;81.60;;;;;;5051001;28;20458;-60
2023/11/21 01:21:25;;;;;;;7.32;3.60;;;10.70;81.50;;;;;;5056749;28;20306;-60
2023/11/21 01:23:50;;;;;;;4.93;3.28;;;10.80;81.60;;;;;;5053524;28;20131;-60
2023/11/21 01:26:16;;;;;;;6.03;3.63;;;10.80;81.70;;;;;;5048472;28;20163;-60
2023/11/21 01:28:42;;;;;;;6.45;3.08;;;10.80;81.70;;;;;;5051618;28;20033;-60
2023/11/21 01:31:08;;;;;;;3.22;2.67;;;10.80;81.70;;;;;;5050898;28;20065;-60
2023/11/21 01:33:33;;;;;;;10.20;4.30;;;10.80;81.70;;;;;;5047732;28;20043;-60
2023/11/21 01:35:59;;;;;;;4.18;3.17;;;10.80;81.80;;;;;;5047409;28;20460;-60
2023/11/21 01:38:25;;;;;;;5.55;3.42;;;10.80;81.90;;;;;;5047972;28;20718;-60
2023/11/21 01:40:51;;;;;;;5.15;3.10;;;10.80;81.90;;;;;;5050981;28;20112;-59
2023/11/21 01:43:17;;;;;;;3.88;2.65;;;10.80;81.90;;;;;;5048560;28;20472;-60
2023/11/21 01:45:45;;;;;;;9.45;3.10;;;10.80;81.90;;;;;;5056092;28;20025;-60
2023/11/21 01:48:12;;;;;;;6.97;3.58;;;10.90;82.00;;;;;;5050665;28;20695;-60
2023/11/21 01:50:38;;;;;;;5.60;3.03;;;10.90;82.10;;;;;;5053498;28;20025;-60
2023/11/21 01:53:04;;;;;;;7.47;4.18;;;10.90;82.20;;;;;;5057088;28;20098;-60
2023/11/21 01:55:30;;;;;;;6.53;3.15;;;10.90;82.20;;;;;;5047965;28;20053;-60
2023/11/21 01:57:59;;;;;;;7.30;3.92;;;10.90;82.20;;;;;;5061738;28;20063;-60
2023/11/21 02:00:27;;;;;;;7.35;3.30;;;10.90;82.30;;;;;;5045885;28;20119;-60
2023/11/21 02:02:53;;;;;;;6.25;3.35;;;10.90;82.30;;;;;;5046287;28;20032;-60
2023/11/21 02:05:21;;;;;;;7.57;3.72;;;10.90;82.20;;;;;;5042728;28;20303;-60
2023/11/21 02:07:52;;;;;;;7.30;3.40;;;10.90;82.20;;;;;;5049114;28;20029;-60
2023/11/21 02:10:22;;;;;;;4.72;3.03;;;10.90;82.30;;;;;;5042775;28;20052;-60
2023/11/21 02:12:50;;;;;;;6.00;3.55;;;10.90;82.30;;;;;;5043889;28;20052;-60
2023/11/21 02:15:20;;;;;;;5.88;3.33;;;10.90;82.40;;;;;;5049439;28;20048;-60
2023/11/21 02:17:53;;;;;;;4.57;3.13;;;10.90;82.50;;;;;;5047410;28;20031;-60
2023/11/21 02:20:24;;;;;;;4.55;3.13;;;10.90;82.50;;;;;;5051145;28;20412;-60
2023/11/21 02:22:57;;;;;;;6.65;3.58;;;10.90;82.60;;;;;;5048215;28;20033;-60
2023/11/21 02:25:24;;;;;;;6.97;3.22;;;10.90;82.50;;;;;;5046941;28;20040;-59
2023/11/21 02:27:51;;;;;;;4.82;2.88;;;10.80;82.40;;;;;;5047810;28;20108;-60
2023/11/21 02:30:17;;;;;;;5.32;3.17;;;10.80;82.40;;;;;;5053316;28;20120;-60
2023/11/21 02:32:43;;;;;;;4.72;3.10;;;10.80;82.40;;;;;;5063037;28;20534;-60
2023/11/21 02:35:09;;;;;;;5.57;3.08;;;10.80;82.50;;;;;;5052761;28;20052;-60
2023/11/21 02:37:35;;;;;;;5.50;2.70;;;10.80;82.50;;;;;;5054070;28;20071;-60
2023/11/21 02:40:04;;;;;;;7.22;3.92;;;10.80;82.40;;;;;;5059183;28;20448;-59
2023/11/21 02:42:30;;;;;;;5.00;3.67;;;10.80;82.40;;;;;;5054801;28;20090;-60
2023/11/21 02:44:56;;;;;;;5.30;3.53;;;10.80;82.50;;;;;;5066654;28;20037;-60
2023/11/21 02:47:23;;;;;;;7.47;2.92;;;10.80;82.50;;;;;;5046509;28;20060;-60
2023/11/21 02:49:48;;;;;;;8.60;3.40;;;10.80;82.50;;;;;;5062966;28;20043;-60
2023/11/21 02:52:14;;;;;;;4.63;2.95;;;10.90;82.60;;;;;;5046655;28;20030;-60
2023/11/21 02:54:40;;;;;;;6.65;4.47;;;10.90;82.60;;;;;;5056576;28;20029;-59
2023/11/21 02:57:06;;;;;;;5.28;3.47;;;10.90;82.70;;;;;;5059435;28;20453;-60
2023/11/21 02:59:31;;;;;;;9.77;4.95;;;10.90;82.80;;;;;;5051771;28;20092;-59
2023/11/21 03:01:57;;;;;;;13.13;5.45;;;10.90;82.90;;;;;;5056795;28;20082;-60
2023/11/21 03:04:23;;;;;;;13.32;5.50;;;10.90;83.10;;;;;;5059074;28;20033;-60
2023/11/21 03:06:48;;;;;;;9.18;5.03;;;10.90;83.20;;;;;;5054598;28;20055;-60
2023/11/21 03:09:14;;;;;;;11.35;5.03;;;11.00;83.20;;;;;;5056492;28;20089;-60
2023/11/21 03:11:40;;;;;;;9.00;5.35;;;11.00;83.20;;;;;;5058784;28;20040;-59
2023/11/21 03:14:06;;;;;;;6.85;4.45;;;11.00;83.30;;;;;;5061134;28;20032;-60
2023/11/21 03:16:35;;;;;;;6.63;4.30;;;11.00;83.30;;;;;;5055039;28;20087;-60
2023/11/21 03:19:01;;;;;;;11.93;5.53;;;11.00;83.50;;;;;;5053804;28;20452;-60
2023/11/21 03:21:27;;;;;;;9.23;5.53;;;11.00;83.60;;;;;;5062221;28;20135;-60
2023/11/21 03:23:53;;;;;;;8.30;5.60;;;11.00;83.70;;;;;;5055157;28;20073;-60
2023/11/21 03:26:18;;;;;;;7.88;5.05;;;11.00;83.90;;;;;;5061983;28;20024;-60
2023/11/21 03:28:46;;;;;;;6.10;4.30;;;10.90;83.90;;;;;;5042364;28;20106;-60
2023/11/21 03:31:11;;;;;;;10.00;5.10;;;10.90;83.90;;;;;;5055741;28;20589;-60
2023/11/21 03:33:37;;;;;;;8.75;4.30;;;11.00;84.00;;;;;;5064160;28;20029;-60
2023/11/21 03:36:03;;;;;;;6.68;3.38;;;10.90;84.00;;;;;;5058031;28;20036;-60
2023/11/21 03:38:29;;;;;;;6.43;3.45;;;11.00;84.00;;;;;;5051892;28;20029;-60
2023/11/21 03:40:55;;;;;;;7.70;4.25;;;11.00;84.10;;;;;;5054117;28;20032;-60
2023/11/21 03:43:21;;;;;;;6.82;3.58;;;11.00;84.10;;;;;;5052260;28;20063;-60
2023/11/21 03:45:46;;;;;;;7.03;3.85;;;11.00;84.10;;;;;;5042487;28;20036;-60
2023/11/21 03:48:13;;;;;;;11.15;4.53;;;11.10;84.10;;;;;;5062673;28;20048;-60
2023/11/21 03:50:38;;;;;;;5.38;3.38;;;11.10;84.00;;;;;;5057195;28;20033;-60
2023/11/21 03:53:04;;;;;;;8.93;4.30;;;11.10;84.60;;;;;;5057363;28;20404;-60
2023/11/21 03:55:31;;;;;;;5.00;4.10;;;11.10;84.10;;;;;;5056455;28;20125;-60
2023/11/21 03:57:58;;;;;;;6.13;3.80;;;11.10;84.20;;;;;;5061255;28;20622;-60
2023/11/21 04:00:26;;;;;;;6.90;3.97;;;11.10;84.20;;;;;;5060195;28;20029;-60
2023/11/21 04:02:52;;;;;;;6.43;3.75;;;11.10;84.20;;;;;;5054896;28;20039;-60
2023/11/21 04:05:19;;;;;;;7.35;4.53;;;11.10;84.20;;;;;;5050271;28;20111;-60
2023/11/21 04:07:45;;;;;;;11.95;4.38;;;11.10;84.20;;;;;;5061052;28;20392;-60
2023/11/21 04:10:13;;;;;;;6.40;4.32;;;11.10;84.80;;;;;;5057130;28;20044;-60
2023/11/21 04:12:39;;;;;;;9.18;3.80;;;11.10;84.20;;;;;;5054121;28;20033;-60
2023/11/21 04:15:05;;;;;;;8.30;3.97;;;11.10;84.30;;;;;;5049987;28;20025;-60
2023/11/21 04:17:31;;;;;;;6.68;3.53;;;11.10;84.30;;;;;;5048719;28;20111;-59
2023/11/21 04:19:56;;;;;;;6.68;4.25;;;11.10;84.10;;;;;;5052938;28;20021;-60
2023/11/21 04:22:22;;;;;;;5.20;3.65;;;11.20;84.10;;;;;;5055482;28;20499;-60
2023/11/21 04:24:49;;;;;;;7.57;4.22;;;11.10;84.10;;;;;;5054411;28;20082;-60
2023/11/21 04:27:14;;;;;;;9.02;5.13;;;11.10;84.20;;;;;;5056803;28;20095;-59
2023/11/21 04:29:41;;;;;;;12.35;5.28;;;11.10;84.20;;;;;;5053191;28;20037;-60
2023/11/21 04:32:07;;;;;;;8.55;4.22;;;11.10;84.30;;;;;;5052932;28;20040;-60
2023/11/21 04:34:34;;;;;;;11.23;6.00;;;11.10;84.40;;;;;;5055738;28;20056;-60
2023/11/21 04:37:00;;;;;;;8.52;5.80;;;11.10;84.50;;;;;;5049092;28;20029;-59
2023/11/21 04:39:26;;;;;;;9.32;5.78;;;11.10;84.60;;;;;;5052765;28;20425;-59
2023/11/21 04:41:52;;;;;;;10.32;5.85;;;11.00;84.70;;;;;;5054711;28;20492;-60
2023/11/21 04:44:17;;;;;;;8.30;4.78;;;11.00;84.90;;;;;;5050947;28;20033;-60
2023/11/21 04:46:43;;;;;;;10.18;5.28;;;11.00;85.00;;;;;;5056133;28;20442;-60
2023/11/21 04:49:10;;;;;;;9.85;5.85;;;11.00;85.10;;;;;;5043477;28;20044;-60
2023/11/21 04:51:36;;;;;;;10.60;5.22;;;11.00;85.20;;;;;;5047678;28;20083;-60
2023/11/21 04:54:02;;;;;;;12.02;5.95;;;11.00;85.20;;;;;;5048828;28;20017;-60
2023/11/21 04:56:28;;;;;;;9.45;5.20;;;11.10;85.40;;;;;;5054352;28;20028;-60
2023/11/21 04:58:54;;;;;;;7.72;4.72;;;11.00;85.30;;;;;;5059320;28;20498;-59
2023/11/21 05:01:20;;;;;;;9.25;5.28;;;11.00;85.40;;;;;;5053742;28;20476;-60
2023/11/21 05:03:47;;;;;;;7.75;4.68;;;11.00;85.40;;;;;;5055079;28;20024;-60
2023/11/21 05:06:14;;;;;;;8.23;5.18;;;11.00;85.40;;;;;;5052471;28;20036;-60
2023/11/21 05:08:39;;;;;;;8.10;4.65;;;11.00;85.50;;;;;;5051659;28;20099;-60
2023/11/21 05:11:07;;;;;;;10.30;5.22;;;11.00;85.60;;;;;;5055077;28;20046;-59
2023/11/21 05:13:34;;;;;;;9.93;5.00;;;11.00;85.60;;;;;;5057357;28;20120;-60
2023/11/21 05:16:00;;;;;;;8.70;4.32;;;11.00;85.70;;;;;;5057473;28;20075;-59
2023/11/21 05:18:29;;;;;;;7.53;3.92;;;11.00;85.60;;;;;;5061008;28;20033;-60
2023/11/21 05:20:55;;;;;;;9.35;5.30;;;11.00;85.60;;;;;;5054776;28;20028;-60
2023/11/21 05:23:21;;;;;;;8.80;4.68;;;11.10;85.70;;;;;;5060689;28;20051;-60
2023/11/21 05:25:47;;;;;;;7.88;3.85;;;11.10;85.70;;;;;;5051403;28;20387;-58
2023/11/21 05:28:13;;;;;;;6.90;3.70;;;11.00;85.70;;;;;;5054298;28;20032;-59
2023/11/21 05:30:39;;;;;;;7.03;3.67;;;11.00;85.70;;;;;;5054538;28;20044;-59
2023/11/21 05:33:05;;;;;;;7.43;5.50;;;11.10;85.70;;;;;;5045200;28;20038;-59
2023/11/21 05:35:31;;;;;;;8.48;4.55;;;11.10;85.60;;;;;;5047358;28;20380;-59
2023/11/21 05:37:57;;;;;;;5.97;3.95;;;11.10;86.20;;;;;;5040686;28;20032;-59
2023/11/21 05:40:23;;;;;;;6.85;3.60;;;11.00;85.70;;;;;;5047185;28;20053;-59
2023/11/21 05:42:49;;;;;;;11.07;5.38;;;11.00;85.90;;;;;;5054675;28;20388;-59
2023/11/21 05:45:15;;;;;;;7.38;3.20;;;11.00;86.00;;;;;;5058446;28;20053;-59
2023/11/21 05:47:43;;;;;;;11.13;4.70;;;11.00;86.10;;;;;;5050697;28;20504;-59
2023/11/21 05:50:12;;;;;;;10.57;4.53;;;11.00;86.10;;;;;;5049010;28;20035;-59
2023/11/21 05:52:38;;;;;;;6.88;4.25;;;11.00;86.10;;;;;;5051988;28;20436;-59
2023/11/21 05:55:07;;;;;;;7.05;4.18;;;11.00;86.10;;;;;;5052293;28;20028;-59
2023/11/21 05:57:36;;;;;;;4.80;3.25;;;11.00;86.00;;;;;;5051828;28;20515;-59
2023/11/21 06:00:20;;;;;;;7.38;3.55;;;11.00;86.00;;;;;;5049811;28;20590;-59
2023/11/21 06:02:46;;;;;;;4.35;3.03;;;11.10;86.10;;;;;;5049410;28;20129;-59
2023/11/21 06:05:12;;;;;;;5.43;3.95;;;11.10;86.10;;;;;;5045711;28;20033;-59
2023/11/21 06:07:38;;;;;;;5.55;3.05;;;11.10;86.10;;;;;;5047396;28;20040;-59
2023/11/21 06:10:12;;;;;;;6.03;3.33;;;11.10;86.00;;;;;;5045798;28;20053;-59
2023/11/21 06:12:39;;;;;;;4.72;3.45;;;11.10;86.10;;;;;;5049505;28;20082;-59
2023/11/21 06:15:08;;;;;;;5.78;3.38;;;11.10;86.10;;;;;;5042949;28;20113;-59
2023/11/21 06:17:37;;;;;;;6.88;3.65;;;11.10;86.10;;;;;;5052161;28;20480;-59
2023/11/21 06:20:11;;;;;;;8.05;3.33;;;11.10;86.10;;;;;;5053416;28;20024;-59
2023/11/21 06:22:37;;;;;;;5.68;3.38;;;11.10;86.20;;;;;;5055770;28;20471;-59
2023/11/21 06:25:05;;;;;;;5.72;3.83;;;11.10;86.20;;;;;;5051167;28;20067;-59
2023/11/21 06:27:39;;;;;;;7.10;3.65;;;11.10;86.10;;;;;;5045107;28;20540;-59
2023/11/21 06:30:06;;;;;;;6.30;3.58;;;11.20;86.20;;;;;;5056034;28;20040;-59
2023/11/21 06:32:32;;;;;;;4.90;2.88;;;11.10;86.20;;;;;;5049295;28;20032;-59
2023/11/21 06:35:01;;;;;;;7.78;3.60;;;11.10;86.10;;;;;;5054288;28;20047;-59
2023/11/21 06:37:30;;;;;;;4.70;2.80;;;11.10;86.10;;;;;;5048708;28;20100;-60
2023/11/21 06:39:58;;;;;;;5.93;3.67;;;11.10;86.20;;;;;;5043542;28;20464;-60
2023/11/21 06:42:24;;;;;;;4.43;3.38;;;11.10;86.20;;;;;;5043952;28;20032;-60
2023/11/21 06:44:53;;;;;;;5.63;3.83;;;11.10;86.20;;;;;;5057281;28;20521;-59
2023/11/21 06:47:26;;;;;;;5.10;3.40;;;11.10;86.30;;;;;;5048971;28;20030;-60
2023/11/21 06:49:52;;;;;;;5.15;3.75;;;11.10;86.30;;;;;;5049277;28;20033;-60
2023/11/21 06:52:19;;;;;;;5.57;3.53;;;11.00;86.40;;;;;;5048098;28;20439;-60
2023/11/21 06:54:47;;;;;;;7.13;3.58;;;11.10;86.50;;;;;;5055209;28;20024;-60
2023/11/21 06:57:13;;;;;;;5.82;2.90;;;11.10;86.50;;;;;;5050383;28;20036;-60
2023/11/21 06:59:39;;;;;;;8.00;3.47;;;11.10;86.40;;;;;;5049073;28;20119;-59
2023/11/21 07:02:06;;;;;;;4.03;3.22;;;11.10;86.30;;;;;;5051103;28;20476;-60
2023/11/21 07:04:32;;;;;;;7.15;3.47;;;11.10;86.30;;;;;;5044842;28;20033;-59
2023/11/21 07:06:58;;;;;;;5.82;3.88;;;11.20;86.30;;;;;;5039344;28;20048;-59
2023/11/21 07:09:25;;;;;;;5.32;2.85;;;11.20;86.40;;;;;;5037321;28;20495;-60
2023/11/21 07:11:51;;;;;;;4.10;2.83;;;11.20;86.30;;;;;;5042561;28;20487;-60
2023/11/21 07:14:19;;;;;;;5.03;3.53;;;11.20;86.40;;;;;;5040806;28;20021;-60
2023/11/21 07:16:45;;;;;;;9.35;3.33;;;11.20;86.30;;;;;;5083074;28;20025;-60
2023/11/21 07:19:12;;;;;;;6.47;3.22;;;11.30;86.80;;;;;;5054653;28;20040;-60
2023/11/21 07:21:39;;;;;;;5.78;3.10;;;11.30;86.20;;;;;;5053054;28;20024;-60
2023/11/21 07:24:06;;;;;;;6.18;3.72;;;11.30;86.20;;;;;;5049860;28;20385;-59
2023/11/21 07:26:33;;;;;;;5.88;3.92;;;11.30;86.30;;;;;;5055579;28;20037;-60
2023/11/21 07:28:59;;;;;;;7.95;3.78;;;11.30;86.30;;;;;;5056889;28;20646;-59
2023/11/21 07:31:24;;;;;;;5.88;4.28;;;11.30;86.30;;;;;;5052329;28;20037;-59
2023/11/21 07:33:51;;;;;;;6.45;4.28;;;11.30;86.50;;;;;;5047905;28;20041;-60
2023/11/21 07:36:23;;;;;;;7.43;3.80;;;11.20;86.50;;;;;;5053017;28;20017;-59
2023/11/21 07:38:49;;;;;;;;;;;11.20;86.60;;;;;;5054171;28;20021;-60
2023/11/21 07:41:15;;;;;;;8.20;4.85;;;11.20;86.50;;;;;;5050486;28;19916;-59
2023/11/21 07:43:44;;;;;;;7.68;4.55;;;11.20;86.70;;;;;;5047489;28;20057;-60
2023/11/21 07:46:12;;;;;;;7.65;4.15;;;11.20;86.70;;;;;;5056362;28;20118;-60
2023/11/21 07:48:46;;;;;;;6.57;3.95;;;11.20;86.80;;;;;;5053172;28;20061;-61
2023/11/21 07:51:13;;;;;;;7.95;4.22;;;11.20;86.80;;;;;;5048188;28;20029;-60
2023/11/21 07:53:39;;;;;;;8.38;3.58;;;11.20;86.80;;;;;;5042973;28;20538;-60
2023/11/21 07:56:08;;;;;;;6.57;3.53;;;11.30;86.90;;;;;;5050619;28;20757;-60
2023/11/21 07:58:35;;;;;;;7.10;3.45;;;11.30;86.80;;;;;;5040641;28;20036;-59
2023/11/21 08:01:04;;;;;;;10.48;5.40;;;11.30;86.70;;;;;;5053338;28;20021;-60
2023/11/21 08:03:30;;;;;;;8.85;5.15;;;11.40;86.70;;;;;;5041949;28;20439;-60
2023/11/21 08:05:57;;;;;;;11.88;4.00;;;11.40;86.70;;;;;;5042598;28;20029;-60
2023/11/21 08:08:23;;;;;;;9.38;5.10;;;11.40;86.70;;;;;;5046559;28;20033;-60
2023/11/21 08:10:56;;;;;;;6.22;4.60;;;11.40;86.70;;;;;;5074705;28;20488;-60
2023/11/21 08:13:26;;;;;;;8.50;3.92;;;11.50;86.80;;;;;;5038869;28;20566;-59
2023/11/21 08:15:55;;;;;;;5.13;3.47;;;11.50;86.80;;;;;;5042791;28;20030;-59
2023/11/21 08:18:21;;;;;;;5.47;3.53;;;11.50;86.80;;;;;;5045458;28;20028;-60
2023/11/21 08:20:47;;;;;;;6.00;3.75;;;11.50;86.80;;;;;;5056497;28;20356;-59
2023/11/21 08:23:15;;;;;;;7.45;4.75;;;11.50;86.70;;;;;;5056196;28;20116;-60
2023/11/21 08:25:42;;;;;;;7.03;4.03;;;11.50;86.70;;;;;;5053329;28;20032;-59
2023/11/21 08:28:08;;;;;;;5.57;4.20;;;11.50;86.70;;;;;;5053903;28;20021;-59
2023/11/21 08:30:34;;;;;;;8.10;5.03;;;11.60;86.80;;;;;;5050251;28;20083;-59
2023/11/21 08:33:00;;;;;;;8.63;5.38;;;11.60;86.70;;;;;;5037609;28;20037;-59
2023/11/21 08:35:26;;;;;;;7.13;3.67;;;11.60;86.70;;;;;;5059312;28;20049;-59
2023/11/21 08:37:55;;;;;;;7.60;5.32;;;11.70;86.70;;;;;;5053741;28;20033;-59
2023/11/21 08:40:21;;;;;;;7.57;4.15;;;11.70;86.60;;;;;;5052900;28;20090;-59
2023/11/21 08:42:52;;;;;;;8.20;5.28;;;11.70;86.50;;;;;;5048871;28;20025;-60
2023/11/21 08:45:19;;;;;;;9.55;4.88;;;11.80;86.50;;;;;;5048633;28;20029;-60
2023/11/21 08:47:45;;;;;;;10.60;4.60;;;11.70;86.40;;;;;;5058066;28;20037;-59
2023/11/21 08:50:12;;;;;;;13.65;4.75;;;11.80;86.50;;;;;;5047980;28;20060;-59
2023/11/21 08:52:40;;;;;;;8.13;4.40;;;11.80;86.50;;;;;;5052778;28;20033;-59
2023/11/21 08:55:12;;;;;;;8.10;4.22;;;11.80;86.60;;;;;;5055108;28;20020;-59
2023/11/21 08:57:40;;;;;;;7.97;4.32;;;11.80;86.60;;;;;;5047575;28;20035;-60
2023/11/21 09:00:11;;;;;;;7.97;4.22;;;11.90;86.60;;;;;;5045747;28;20025;-61
2023/11/21 09:02:37;;;;;;;8.35;4.88;;;11.80;86.50;;;;;;5040890;28;20037;-60
2023/11/21 09:05:07;;;;;;;8.82;4.78;;;11.90;87.20;;;;;;5045069;28;20024;-60
2023/11/21 09:07:32;;;;;;;8.95;5.13;;;12.00;86.50;;;;;;5043388;28;20029;-59
2023/11/21 09:09:58;;;;;;;8.65;4.05;;;12.00;86.40;;;;;;5048051;28;20048;-60
2023/11/21 09:12:27;;;;;;;9.50;4.85;;;12.00;86.30;;;;;;5035988;28;20069;-59
2023/11/21 09:14:52;;;;;;;6.00;3.92;;;12.10;86.40;;;;;;5052394;28;20432;-59
2023/11/21 09:17:18;;;;;;;6.95;4.00;;;12.10;86.40;;;;;;5054441;28;20063;-59
2023/11/21 09:19:51;;;;;;;11.05;5.20;;;12.10;86.30;;;;;;5052352;28;20039;-59
2023/11/21 09:22:17;;;;;;;;;;;12.10;86.30;;;;;;5044614;28;20037;-59
2023/11/21 09:24:42;;;;;;;9.32;4.35;;;12.10;86.30;;;;;;5039767;28;20287;-60
2023/11/21 09:27:09;;;;;;;7.75;4.65;;;12.10;86.40;;;;;;5036655;28;20032;-59
2023/11/21 09:29:35;;;;;;;7.45;4.65;;;12.10;86.30;;;;;;5044857;28;20044;-60
2023/11/21 09:32:03;;;;;;;8.05;4.47;;;12.00;86.30;;;;;;5033508;28;23751;-60
2023/11/21 09:34:28;;;;;;;8.27;5.68;;;12.00;86.40;;;;;;5038339;28;20044;-59
2023/11/21 09:36:54;;;;;;;13.15;5.28;;;12.00;86.40;;;;;;5042321;28;20029;-59
2023/11/21 09:39:19;;;;;;;8.02;4.30;;;12.00;86.50;;;;;;5032994;28;20032;-59
2023/11/21 09:42:07;;;;;;;6.60;4.45;;;12.00;86.60;;;;;;5049523;28;20033;-60
2023/11/21 09:45:01;;;;;;;5.90;3.65;;;12.10;86.70;;;;;;5036166;28;20052;-60
2023/11/21 09:47:27;;;;;;;4.55;3.38;;;12.10;86.60;;;;;;5044707;28;20035;-60
2023/11/21 09:49:56;;;;;;;5.40;3.50;;;12.10;86.50;;;;;;5049089;28;20431;-60
2023/11/21 09:52:25;;;;;;;7.75;4.53;;;12.10;86.50;;;;;;5049227;28;20457;-60
2023/11/21 09:54:53;;;;;;;4.88;3.65;;;12.20;86.50;;;;;;5046633;28;20073;-60
2023/11/21 09:57:21;;;;;;;8.55;3.83;;;12.20;86.60;;;;;;5037289;28;20474;-60
2023/11/21 09:59:58;;;;;;;9.00;4.88;;;12.30;86.50;;;;;;5046710;28;20425;-60
2023/11/21 10:02:32;;;;;;;9.50;4.22;;;12.30;86.40;;;;;;5044938;28;20021;-59
2023/11/21 10:05:00;;;;;;;8.20;5.30;;;12.40;86.40;;;;;;5045254;28;20175;-60
2023/11/21 10:07:28;;;;;;;6.50;4.47;;;12.50;86.40;;;;;;5034484;28;20033;-60
2023/11/21 10:09:55;;;;;;;7.28;4.43;;;12.50;86.40;;;;;;5057959;28;20048;-60
2023/11/21 10:12:23;;;;;;;9.88;4.18;;;12.70;86.30;;;;;;5049152;28;20033;-60
2023/11/21 10:14:51;;;;;;;5.15;2.72;;;12.70;86.20;;;;;;5047284;28;20044;-60
2023/11/21 10:17:21;;;;;;;9.18;3.78;;;12.80;86.20;;;;;;5047486;28;20024;-60
2023/11/21 10:19:50;;;;;;;5.82;2.05;;;12.80;86.10;;;;;;5046273;28;20021;-60
2023/11/21 10:22:17;;;;;;;3.88;2.47;;;12.90;86.10;;;;;;5048444;28;20369;-60
2023/11/21 10:24:43;;;;;;;4.35;2.58;;;12.90;86.00;;;;;;5057525;28;20035;-60
2023/11/21 10:27:09;;;;;;;5.38;2.72;;;12.90;86.10;;;;;;5044859;28;20034;-60
2023/11/21 10:29:35;;;;;;;5.20;2.50;;;12.90;86.10;;;;;;5048270;28;20466;-60
2023/11/21 10:32:05;;;;;;;8.60;2.55;;;12.90;86.20;;;;;;5044113;28;20040;-60
2023/11/21 10:34:31;;;;;;;3.90;2.45;;;12.90;86.30;;;;;;5029356;28;20132;-60
2023/11/21 10:36:57;;;;;;;4.80;2.65;;;12.90;86.40;;;;;;5041300;28;20028;-60
2023/11/21 10:39:27;;;;;;;4.18;2.22;;;12.90;86.40;;;;;;5047140;28;20028;-60
2023/11/21 10:41:54;;;;;;;3.42;2.70;;;13.00;86.40;;;;;;5036233;28;20112;-59
2023/11/21 10:44:21;;;;;;;3.40;1.95;;;13.00;86.30;;;;;;5042595;28;20079;-60
2023/11/21 10:46:57;;;;;;;3.67;1.92;;;13.00;86.40;;;;;;5049436;28;20073;-60
2023/11/21 10:49:27;;;;;;;5.00;2.13;;;13.10;86.30;;;;;;5046633;28;20029;-60
2023/11/21 10:51:54;;;;;;;3.78;2.60;;;13.10;86.20;;;;;;5042306;28;20078;-60
2023/11/21 10:54:21;;;;;;;2.90;1.85;;;13.10;86.20;;;;;;5063401;28;20082;-60
2023/11/21 10:56:51;;;;;;;3.63;2.20;;;13.10;86.10;;;;;;5047885;28;20031;-59
2023/11/21 10:59:17;;;;;;;2.85;1.83;;;13.10;86.60;;;;;;5048887;28;20025;-60
2023/11/21 11:01:45;;;;;;;2.42;1.58;;;13.10;86.20;;;;;;5054119;28;20539;-61
2023/11/21 11:04:16;;;;;;;6.80;2.22;;;13.00;86.30;;;;;;5043549;28;20017;-60
2023/11/21 11:06:51;;;;;;;3.58;1.95;;;13.00;86.40;;;;;;5045804;28;20030;-60
2023/11/21 11:09:18;;;;;;;3.00;2.30;;;12.90;86.40;;;;;;5045640;28;20510;-60
2023/11/21 11:11:44;;;;;;;5.72;2.30;;;12.80;86.60;;;;;;5037972;28;20033;-60
2023/11/21 11:14:14;;;;;;;4.82;2.53;;;12.80;86.80;;;;;;5047614;28;20078;-60
2023/11/21 11:16:41;;;;;;;4.18;2.80;;;12.80;86.90;;;;;;5049205;28;20435;-60
2023/11/21 11:19:07;;;;;;;3.53;2.60;;;12.80;86.90;;;;;;5051405;28;20029;-60
2023/11/21 11:21:58;;;;;;;4.78;2.55;;;12.70;86.90;;;;;;5049334;28;20025;-60
2023/11/21 11:24:49;;;;;;;7.10;2.97;;;12.80;86.90;;;;;;5058064;28;20043;-60
2023/11/21 11:27:35;;;;;;;6.22;3.90;;;12.70;86.90;;;;;;5043634;28;20017;-60
2023/11/21 11:30:08;;;;;;;6.68;3.50;;;12.70;87.10;;;;;;5045603;28;20488;-60
2023/11/21 11:32:50;;;;;;;6.13;2.55;;;12.70;87.10;;;;;;5038224;28;20450;-59
2023/11/21 11:35:53;;;;;;;7.35;3.80;;;12.70;87.10;;;;;;5044751;28;20447;-60
2023/11/21 11:38:20;;;;;;;4.03;2.35;;;12.70;87.30;;;;;;5045554;28;20017;-60
2023/11/21 11:40:47;;;;;;;5.55;2.55;;;12.70;87.20;;;;;;5048345;28;20030;-59
2023/11/21 11:43:12;;;;;;;3.50;2.25;;;12.70;87.10;;;;;;5042978;28;20068;-60
2023/11/21 11:45:42;;;;;;;3.55;2.03;;;12.70;87.10;;;;;;5047992;28;20061;-60
2023/11/21 11:48:13;;;;;;;2.42;1.90;;;12.70;87.10;;;;;;5051393;28;20039;-60
2023/11/21 11:51:00;;;;;;;2.90;2.58;;;12.60;87.20;;;;;;5055389;28;20040;-60
2023/11/21 11:53:26;;;;;;;7.70;2.13;;;12.60;87.30;;;;;;5053635;28;20423;-60
2023/11/21 11:56:28;;;;;;;2.38;1.67;;;12.60;87.40;;;;;;5057964;28;20079;-59
2023/11/21 11:58:56;;;;;;;3.35;2.60;;;12.70;87.30;;;;;;5044953;28;20361;-59
2023/11/21 12:01:24;;;;;;;5.00;1.98;;;12.70;87.50;;;;;;5048337;28;20074;-60
2023/11/21 12:04:14;;;;;;;2.45;2.17;;;12.70;87.30;;;;;;5051137;28;20033;-60
2023/11/21 12:06:43;;;;;;;2.75;1.85;;;12.80;87.10;;;;;;5048781;28;20044;-59
2023/11/21 12:09:23;;;;;;;2.17;1.42;;;12.80;87.10;;;;;;5048360;28;20428;-60
2023/11/21 12:11:49;;;;;;;2.55;2.05;;;12.90;87.10;;;;;;5061781;28;20095;-60
2023/11/21 12:14:16;;;;;;;3.28;2.08;;;12.80;87.10;;;;;;5054207;28;20083;-60
2023/11/21 12:16:45;;;;;;;4.00;1.98;;;12.80;87.00;;;;;;5051150;28;20521;-60
2023/11/21 12:19:14;;;;;;;3.60;2.10;;;12.80;87.10;;;;;;5055204;28;20029;-60
2023/11/21 12:21:48;;;;;;;5.03;2.63;;;12.80;87.30;;;;;;5052859;28;20036;-60
2023/11/21 12:24:16;;;;;;;2.60;1.90;;;12.80;87.20;;;;;;5052882;28;20503;-60
2023/11/21 12:26:42;;;;;;;7.40;2.30;;;12.70;87.30;;;;;;5053368;28;20167;-60
2023/11/21 12:29:08;;;;;;;4.13;2.10;;;12.70;87.30;;;;;;5051856;28;20507;-60
2023/11/21 12:31:35;;;;;;;10.07;3.58;;;12.70;87.40;;;;;;5056320;28;20029;-60
2023/11/21 12:34:01;;;;;;;3.05;1.85;;;12.70;87.50;;;;;;5057615;28;20091;-60
2023/11/21 12:36:29;;;;;;;4.57;2.85;;;12.70;87.40;;;;;;5053082;28;20028;-60
2023/11/21 12:38:54;;;;;;;6.32;2.10;;;12.70;87.30;;;;;;5046160;28;20115;-60
2023/11/21 12:41:21;;;;;;;5.30;2.70;;;12.70;87.30;;;;;;5047469;28;20131;-60
2023/11/21 12:43:47;;;;;;;4.25;2.67;;;12.70;87.20;;;;;;5047991;28;20024;-60
2023/11/21 12:46:15;;;;;;;4.50;2.53;;;12.70;87.30;;;;;;5039705;28;20087;-60
2023/11/21 12:48:45;;;;;;;6.72;3.00;;;12.70;87.30;;;;;;5050381;28;20556;-60